sensor_id;sensor_type;location;lat;lon;timestamp;P1;durP1;ratioP1;P2;durP2;ratioP2
40993;SDS011;26722;43.212;27.932;2023-04-03T00:00:37;14.55;;;5.97;;
40993;SDS011;26722;43.212;27.932;2023-04-03T00:03:03;10.75;;;5.38;;
40993;SDS011;26722;43.212;27.932;2023-04-03T00:05:28;12.35;;;5.40;;
40993;SDS011;26722;43.212;27.932;2023-04-03T00:07:54;7.88;;;4.97;;
40993;SDS011;26722;43.212;27.932;2023-04-03T00:10:20;7.80;;;4.50;;
40993;SDS011;26722;43.212;27.932;2023-04-03T00:12:46;8.18;;;5.00;;
40993;SDS011;26722;43.212;27.932;2023-04-03T00:15:11;7.90;;;4.97;;
40993;SDS011;26722;43.212;27.932;2023-04-03T00:17:37;10.32;;;5.45;;
40993;SDS011;26722;43.212;27.932;2023-04-03T00:20:03;9.05;;;5.10;;
40993;SDS011;26722;43.212;27.932;2023-04-03T00:22:29;9.25;;;5.97;;
40993;SDS011;26722;43.212;27.932;2023-04-03T00:24:55;12.27;;;6.22;;
40993;SDS011;26722;43.212;27.932;2023-04-03T00:27:21;11.73;;;7.30;;
40993;SDS011;26722;43.212;27.932;2023-04-03T00:29:46;10.57;;;6.40;;
40993;SDS011;26722;43.212;27.932;2023-04-03T00:32:12;12.60;;;6.45;;
40993;SDS011;26722;43.212;27.932;2023-04-03T00:34:38;11.15;;;6.18;;
40993;SDS011;26722;43.212;27.932;2023-04-03T00:37:03;13.50;;;6.28;;
40993;SDS011;26722;43.212;27.932;2023-04-03T00:39:29;11.38;;;6.40;;
40993;SDS011;26722;43.212;27.932;2023-04-03T00:41:55;11.23;;;6.38;;
40993;SDS011;26722;43.212;27.932;2023-04-03T00:44:22;14.00;;;5.88;;
40993;SDS011;26722;43.212;27.932;2023-04-03T00:47:09;11.52;;;6.10;;
40993;SDS011;26722;43.212;27.932;2023-04-03T00:49:37;10.27;;;6.35;;
40993;SDS011;26722;43.212;27.932;2023-04-03T00:52:04;9.65;;;6.40;;
40993;SDS011;26722;43.212;27.932;2023-04-03T00:54:32;12.63;;;6.20;;
40993;SDS011;26722;43.212;27.932;2023-04-03T00:57:01;10.70;;;6.78;;
40993;SDS011;26722;43.212;27.932;2023-04-03T00:59:29;10.75;;;6.75;;
40993;SDS011;26722;43.212;27.932;2023-04-03T01:01:58;12.75;;;6.95;;
40993;SDS011;26722;43.212;27.932;2023-04-03T01:06:59;11.82;;;6.60;;
40993;SDS011;26722;43.212;27.932;2023-04-03T01:09:46;8.80;;;6.10;;
40993;SDS011;26722;43.212;27.932;2023-04-03T01:12:16;15.23;;;6.13;;
40993;SDS011;26722;43.212;27.932;2023-04-03T01:14:48;11.48;;;7.07;;
40993;SDS011;26722;43.212;27.932;2023-04-03T01:27:47;16.55;;;8.65;;
40993;SDS011;26722;43.212;27.932;2023-04-03T01:30:13;17.05;;;8.30;;
40993;SDS011;26722;43.212;27.932;2023-04-03T01:32:42;14.63;;;8.27;;
40993;SDS011;26722;43.212;27.932;2023-04-03T01:35:08;13.52;;;7.13;;
40993;SDS011;26722;43.212;27.932;2023-04-03T01:37:34;16.92;;;8.07;;
40993;SDS011;26722;43.212;27.932;2023-04-03T01:40:00;14.05;;;7.65;;
40993;SDS011;26722;43.212;27.932;2023-04-03T01:42:25;14.35;;;7.60;;
40993;SDS011;26722;43.212;27.932;2023-04-03T01:44:51;18.45;;;7.35;;
40993;SDS011;26722;43.212;27.932;2023-04-03T01:47:16;15.27;;;8.18;;
40993;SDS011;26722;43.212;27.932;2023-04-03T01:49:42;17.75;;;8.98;;
40993;SDS011;26722;43.212;27.932;2023-04-03T01:52:07;15.73;;;8.20;;
40993;SDS011;26722;43.212;27.932;2023-04-03T01:54:33;15.70;;;9.40;;
40993;SDS011;26722;43.212;27.932;2023-04-03T01:56:58;21.83;;;10.13;;
40993;SDS011;26722;43.212;27.932;2023-04-03T01:59:24;25.50;;;11.77;;
40993;SDS011;26722;43.212;27.932;2023-04-03T02:01:49;37.92;;;15.30;;
40993;SDS011;26722;43.212;27.932;2023-04-03T02:04:16;37.05;;;19.83;;
40993;SDS011;26722;43.212;27.932;2023-04-03T02:06:41;46.47;;;27.27;;
40993;SDS011;26722;43.212;27.932;2023-04-03T02:09:07;72.60;;;37.65;;
40993;SDS011;26722;43.212;27.932;2023-04-03T02:11:32;94.80;;;45.72;;
40993;SDS011;26722;43.212;27.932;2023-04-03T02:13:58;135.68;;;65.32;;
40993;SDS011;26722;43.212;27.932;2023-04-03T02:16:23;108.28;;;51.67;;
40993;SDS011;26722;43.212;27.932;2023-04-03T02:18:49;110.38;;;58.28;;
40993;SDS011;26722;43.212;27.932;2023-04-03T02:21:15;112.32;;;60.00;;
40993;SDS011;26722;43.212;27.932;2023-04-03T02:23:41;82.60;;;43.05;;
40993;SDS011;26722;43.212;27.932;2023-04-03T02:26:07;89.03;;;43.97;;
40993;SDS011;26722;43.212;27.932;2023-04-03T02:28:35;100.97;;;51.60;;
40993;SDS011;26722;43.212;27.932;2023-04-03T02:31:00;138.48;;;71.63;;
40993;SDS011;26722;43.212;27.932;2023-04-03T02:33:26;118.25;;;60.42;;
40993;SDS011;26722;43.212;27.932;2023-04-03T02:35:52;93.45;;;47.95;;
40993;SDS011;26722;43.212;27.932;2023-04-03T02:38:21;78.68;;;40.63;;
40993;SDS011;26722;43.212;27.932;2023-04-03T02:40:47;67.75;;;33.78;;
40993;SDS011;26722;43.212;27.932;2023-04-03T02:43:13;56.00;;;30.48;;
40993;SDS011;26722;43.212;27.932;2023-04-03T02:45:38;34.78;;;18.73;;
40993;SDS011;26722;43.212;27.932;2023-04-03T02:48:04;39.70;;;20.88;;
40993;SDS011;26722;43.212;27.932;2023-04-03T02:50:30;44.40;;;23.13;;
40993;SDS011;26722;43.212;27.932;2023-04-03T02:52:55;42.90;;;23.08;;
40993;SDS011;26722;43.212;27.932;2023-04-03T02:55:21;37.63;;;19.65;;
40993;SDS011;26722;43.212;27.932;2023-04-03T02:57:46;30.77;;;16.70;;
40993;SDS011;26722;43.212;27.932;2023-04-03T03:00:12;26.17;;;15.68;;
40993;SDS011;26722;43.212;27.932;2023-04-03T03:02:39;23.30;;;13.45;;
40993;SDS011;26722;43.212;27.932;2023-04-03T03:05:05;20.40;;;11.18;;
40993;SDS011;26722;43.212;27.932;2023-04-03T03:07:31;15.43;;;8.80;;
40993;SDS011;26722;43.212;27.932;2023-04-03T03:09:57;15.32;;;8.88;;
40993;SDS011;26722;43.212;27.932;2023-04-03T03:12:22;11.90;;;6.75;;
40993;SDS011;26722;43.212;27.932;2023-04-03T03:14:49;10.93;;;5.93;;
40993;SDS011;26722;43.212;27.932;2023-04-03T03:17:15;12.45;;;7.55;;
40993;SDS011;26722;43.212;27.932;2023-04-03T03:19:41;9.80;;;5.60;;
40993;SDS011;26722;43.212;27.932;2023-04-03T03:22:07;11.70;;;6.40;;
40993;SDS011;26722;43.212;27.932;2023-04-03T03:24:32;17.02;;;8.65;;
40993;SDS011;26722;43.212;27.932;2023-04-03T03:26:58;22.23;;;11.82;;
40993;SDS011;26722;43.212;27.932;2023-04-03T03:29:23;32.10;;;15.38;;
40993;SDS011;26722;43.212;27.932;2023-04-03T03:31:49;26.33;;;15.07;;
40993;SDS011;26722;43.212;27.932;2023-04-03T03:34:15;27.75;;;14.30;;
40993;SDS011;26722;43.212;27.932;2023-04-03T03:36:40;32.45;;;16.08;;
40993;SDS011;26722;43.212;27.932;2023-04-03T03:39:06;31.98;;;16.52;;
40993;SDS011;26722;43.212;27.932;2023-04-03T03:41:32;35.80;;;14.85;;
40993;SDS011;26722;43.212;27.932;2023-04-03T03:43:57;30.55;;;12.45;;
40993;SDS011;26722;43.212;27.932;2023-04-03T03:46:23;27.33;;;14.38;;
40993;SDS011;26722;43.212;27.932;2023-04-03T03:48:49;32.63;;;15.15;;
40993;SDS011;26722;43.212;27.932;2023-04-03T03:51:14;32.78;;;17.50;;
40993;SDS011;26722;43.212;27.932;2023-04-03T03:53:40;33.75;;;16.23;;
40993;SDS011;26722;43.212;27.932;2023-04-03T03:56:06;35.90;;;20.02;;
40993;SDS011;26722;43.212;27.932;2023-04-03T03:58:32;33.97;;;18.73;;
40993;SDS011;26722;43.212;27.932;2023-04-03T04:01:01;39.38;;;20.17;;
40993;SDS011;26722;43.212;27.932;2023-04-03T04:03:27;36.50;;;19.90;;
40993;SDS011;26722;43.212;27.932;2023-04-03T04:05:53;34.72;;;17.67;;
40993;SDS011;26722;43.212;27.932;2023-04-03T04:08:18;29.80;;;15.05;;
40993;SDS011;26722;43.212;27.932;2023-04-03T04:10:44;30.00;;;14.07;;
40993;SDS011;26722;43.212;27.932;2023-04-03T04:13:09;23.92;;;12.75;;
40993;SDS011;26722;43.212;27.932;2023-04-03T04:15:35;17.88;;;10.48;;
40993;SDS011;26722;43.212;27.932;2023-04-03T04:18:00;17.83;;;8.90;;
40993;SDS011;26722;43.212;27.932;2023-04-03T04:20:26;14.95;;;7.22;;
40993;SDS011;26722;43.212;27.932;2023-04-03T04:22:51;16.25;;;7.53;;
40993;SDS011;26722;43.212;27.932;2023-04-03T04:25:17;16.45;;;7.30;;
40993;SDS011;26722;43.212;27.932;2023-04-03T04:27:43;12.40;;;7.70;;
40993;SDS011;26722;43.212;27.932;2023-04-03T04:30:08;13.55;;;6.70;;
40993;SDS011;26722;43.212;27.932;2023-04-03T04:32:34;10.25;;;5.75;;
40993;SDS011;26722;43.212;27.932;2023-04-03T04:35:00;10.00;;;5.65;;
40993;SDS011;26722;43.212;27.932;2023-04-03T04:37:26;12.27;;;5.47;;
40993;SDS011;26722;43.212;27.932;2023-04-03T04:39:51;15.23;;;4.78;;
40993;SDS011;26722;43.212;27.932;2023-04-03T04:42:17;10.73;;;5.22;;
40993;SDS011;26722;43.212;27.932;2023-04-03T04:44:43;8.35;;;4.63;;
40993;SDS011;26722;43.212;27.932;2023-04-03T04:47:08;9.50;;;4.65;;
40993;SDS011;26722;43.212;27.932;2023-04-03T04:49:34;8.20;;;4.28;;
40993;SDS011;26722;43.212;27.932;2023-04-03T04:51:59;11.82;;;4.60;;
40993;SDS011;26722;43.212;27.932;2023-04-03T04:54:25;9.32;;;5.20;;
40993;SDS011;26722;43.212;27.932;2023-04-03T04:56:51;9.57;;;4.40;;
40993;SDS011;26722;43.212;27.932;2023-04-03T04:59:16;11.48;;;5.78;;
40993;SDS011;26722;43.212;27.932;2023-04-03T05:01:42;8.63;;;4.55;;
40993;SDS011;26722;43.212;27.932;2023-04-03T05:04:07;7.05;;;3.63;;
40993;SDS011;26722;43.212;27.932;2023-04-03T05:06:34;8.52;;;3.28;;
40993;SDS011;26722;43.212;27.932;2023-04-03T05:09:00;6.38;;;2.90;;
40993;SDS011;26722;43.212;27.932;2023-04-03T05:11:26;7.15;;;2.80;;
40993;SDS011;26722;43.212;27.932;2023-04-03T05:13:52;6.53;;;3.20;;
40993;SDS011;26722;43.212;27.932;2023-04-03T05:16:17;6.35;;;3.05;;
40993;SDS011;26722;43.212;27.932;2023-04-03T05:18:43;4.15;;;2.70;;
40993;SDS011;26722;43.212;27.932;2023-04-03T05:21:08;6.60;;;3.03;;
40993;SDS011;26722;43.212;27.932;2023-04-03T05:23:34;4.40;;;2.95;;
40993;SDS011;26722;43.212;27.932;2023-04-03T05:25:59;10.93;;;3.03;;
40993;SDS011;26722;43.212;27.932;2023-04-03T05:28:25;8.43;;;3.33;;
40993;SDS011;26722;43.212;27.932;2023-04-03T05:30:57;10.77;;;3.95;;
40993;SDS011;26722;43.212;27.932;2023-04-03T05:33:24;6.30;;;4.22;;
40993;SDS011;26722;43.212;27.932;2023-04-03T05:35:51;15.85;;;6.18;;
40993;SDS011;26722;43.212;27.932;2023-04-03T05:38:17;9.15;;;5.30;;
40993;SDS011;26722;43.212;27.932;2023-04-03T05:40:42;8.10;;;4.88;;
40993;SDS011;26722;43.212;27.932;2023-04-03T05:43:08;8.05;;;4.97;;
40993;SDS011;26722;43.212;27.932;2023-04-03T05:45:33;13.60;;;4.65;;
40993;SDS011;26722;43.212;27.932;2023-04-03T05:47:59;10.45;;;4.60;;
40993;SDS011;26722;43.212;27.932;2023-04-03T05:50:25;9.40;;;4.30;;
40993;SDS011;26722;43.212;27.932;2023-04-03T05:52:50;7.05;;;3.88;;
40993;SDS011;26722;43.212;27.932;2023-04-03T05:55:20;7.45;;;2.85;;
40993;SDS011;26722;43.212;27.932;2023-04-03T05:57:46;5.07;;;3.38;;
40993;SDS011;26722;43.212;27.932;2023-04-03T06:00:15;8.80;;;3.55;;
40993;SDS011;26722;43.212;27.932;2023-04-03T06:02:41;7.05;;;3.13;;
40993;SDS011;26722;43.212;27.932;2023-04-03T06:05:07;5.72;;;3.20;;
40993;SDS011;26722;43.212;27.932;2023-04-03T06:07:34;4.10;;;2.80;;
40993;SDS011;26722;43.212;27.932;2023-04-03T06:10:00;7.47;;;3.03;;
40993;SDS011;26722;43.212;27.932;2023-04-03T06:12:26;4.82;;;2.88;;
40993;SDS011;26722;43.212;27.932;2023-04-03T06:14:54;9.27;;;3.38;;
40993;SDS011;26722;43.212;27.932;2023-04-03T06:17:20;4.95;;;2.75;;
40993;SDS011;26722;43.212;27.932;2023-04-03T06:19:45;8.00;;;3.83;;
40993;SDS011;26722;43.212;27.932;2023-04-03T06:22:11;3.90;;;2.75;;
40993;SDS011;26722;43.212;27.932;2023-04-03T06:24:37;7.15;;;2.50;;
40993;SDS011;26722;43.212;27.932;2023-04-03T06:27:03;8.95;;;3.42;;
40993;SDS011;26722;43.212;27.932;2023-04-03T06:29:29;5.20;;;3.00;;
40993;SDS011;26722;43.212;27.932;2023-04-03T06:31:54;7.10;;;3.05;;
40993;SDS011;26722;43.212;27.932;2023-04-03T06:34:20;6.57;;;3.08;;
40993;SDS011;26722;43.212;27.932;2023-04-03T06:36:46;5.15;;;2.53;;
40993;SDS011;26722;43.212;27.932;2023-04-03T06:39:15;4.18;;;2.60;;
40993;SDS011;26722;43.212;27.932;2023-04-03T06:41:45;4.75;;;2.63;;
40993;SDS011;26722;43.212;27.932;2023-04-03T06:44:10;5.28;;;2.85;;
40993;SDS011;26722;43.212;27.932;2023-04-03T06:46:38;5.35;;;2.97;;
40993;SDS011;26722;43.212;27.932;2023-04-03T06:49:04;7.22;;;3.47;;
40993;SDS011;26722;43.212;27.932;2023-04-03T06:51:32;11.95;;;4.90;;
40993;SDS011;26722;43.212;27.932;2023-04-03T06:53:58;10.90;;;6.13;;
40993;SDS011;26722;43.212;27.932;2023-04-03T06:56:25;18.77;;;5.95;;
40993;SDS011;26722;43.212;27.932;2023-04-03T06:58:52;11.20;;;5.95;;
40993;SDS011;26722;43.212;27.932;2023-04-03T07:01:20;12.52;;;4.63;;
40993;SDS011;26722;43.212;27.932;2023-04-03T07:03:46;10.57;;;4.30;;
40993;SDS011;26722;43.212;27.932;2023-04-03T07:06:14;9.35;;;4.55;;
40993;SDS011;26722;43.212;27.932;2023-04-03T07:08:40;12.48;;;4.90;;
40993;SDS011;26722;43.212;27.932;2023-04-03T07:11:07;7.97;;;3.92;;
40993;SDS011;26722;43.212;27.932;2023-04-03T07:13:33;8.63;;;4.32;;
40993;SDS011;26722;43.212;27.932;2023-04-03T07:16:00;9.75;;;4.35;;
40993;SDS011;26722;43.212;27.932;2023-04-03T07:18:26;9.35;;;3.97;;
40993;SDS011;26722;43.212;27.932;2023-04-03T07:20:52;11.77;;;3.80;;
40993;SDS011;26722;43.212;27.932;2023-04-03T07:23:18;10.55;;;4.00;;
40993;SDS011;26722;43.212;27.932;2023-04-03T07:25:44;4.45;;;2.75;;
40993;SDS011;26722;43.212;27.932;2023-04-03T07:28:11;3.47;;;2.30;;
40993;SDS011;26722;43.212;27.932;2023-04-03T07:33:10;12.90;;;4.20;;
40993;SDS011;26722;43.212;27.932;2023-04-03T07:35:36;11.13;;;4.30;;
40993;SDS011;26722;43.212;27.932;2023-04-03T07:38:02;9.30;;;4.18;;
40993;SDS011;26722;43.212;27.932;2023-04-03T07:40:28;8.43;;;4.22;;
40993;SDS011;26722;43.212;27.932;2023-04-03T07:42:53;11.00;;;4.45;;
40993;SDS011;26722;43.212;27.932;2023-04-03T07:45:21;9.25;;;3.97;;
40993;SDS011;26722;43.212;27.932;2023-04-03T07:47:48;9.75;;;4.90;;
40993;SDS011;26722;43.212;27.932;2023-04-03T07:50:13;11.05;;;5.20;;
40993;SDS011;26722;43.212;27.932;2023-04-03T07:52:39;6.45;;;4.20;;
40993;SDS011;26722;43.212;27.932;2023-04-03T07:55:05;7.57;;;4.40;;
40993;SDS011;26722;43.212;27.932;2023-04-03T07:57:31;10.98;;;4.05;;
40993;SDS011;26722;43.212;27.932;2023-04-03T07:59:57;11.48;;;4.28;;
40993;SDS011;26722;43.212;27.932;2023-04-03T08:02:22;6.45;;;3.67;;
40993;SDS011;26722;43.212;27.932;2023-04-03T08:04:48;10.90;;;3.80;;
40993;SDS011;26722;43.212;27.932;2023-04-03T08:07:13;4.88;;;3.47;;
40993;SDS011;26722;43.212;27.932;2023-04-03T08:09:39;5.45;;;3.55;;
40993;SDS011;26722;43.212;27.932;2023-04-03T08:12:05;6.35;;;3.63;;
40993;SDS011;26722;43.212;27.932;2023-04-03T08:14:31;6.00;;;4.05;;
40993;SDS011;26722;43.212;27.932;2023-04-03T08:17:00;4.63;;;3.63;;
40993;SDS011;26722;43.212;27.932;2023-04-03T08:19:25;5.80;;;3.90;;
40993;SDS011;26722;43.212;27.932;2023-04-03T08:21:52;6.97;;;4.25;;
40993;SDS011;26722;43.212;27.932;2023-04-03T08:24:19;7.50;;;4.72;;
40993;SDS011;26722;43.212;27.932;2023-04-03T08:26:45;6.43;;;4.15;;
40993;SDS011;26722;43.212;27.932;2023-04-03T08:29:10;11.50;;;4.20;;
40993;SDS011;26722;43.212;27.932;2023-04-03T08:31:36;7.43;;;4.68;;
40993;SDS011;26722;43.212;27.932;2023-04-03T08:34:02;7.35;;;4.60;;
40993;SDS011;26722;43.212;27.932;2023-04-03T08:36:28;8.15;;;5.00;;
40993;SDS011;26722;43.212;27.932;2023-04-03T08:38:55;10.10;;;4.40;;
40993;SDS011;26722;43.212;27.932;2023-04-03T08:46:26;10.73;;;5.20;;
40993;SDS011;26722;43.212;27.932;2023-04-03T08:49:07;7.38;;;4.82;;
40993;SDS011;26722;43.212;27.932;2023-04-03T08:51:42;7.60;;;4.80;;
40993;SDS011;26722;43.212;27.932;2023-04-03T08:54:17;9.13;;;5.00;;
40993;SDS011;26722;43.212;27.932;2023-04-03T08:56:57;7.90;;;5.88;;
40993;SDS011;26722;43.212;27.932;2023-04-03T08:59:28;7.95;;;5.68;;
40993;SDS011;26722;43.212;27.932;2023-04-03T09:01:57;9.25;;;5.40;;
40993;SDS011;26722;43.212;27.932;2023-04-03T09:04:27;10.25;;;6.07;;
40993;SDS011;26722;43.212;27.932;2023-04-03T09:07:02;9.57;;;5.20;;
40993;SDS011;26722;43.212;27.932;2023-04-03T09:09:36;10.98;;;5.80;;
40993;SDS011;26722;43.212;27.932;2023-04-03T09:12:09;12.63;;;5.88;;
40993;SDS011;26722;43.212;27.932;2023-04-03T09:17:36;12.63;;;5.78;;
40993;SDS011;26722;43.212;27.932;2023-04-03T09:20:14;8.15;;;5.47;;
40993;SDS011;26722;43.212;27.932;2023-04-03T09:22:50;13.13;;;6.82;;
40993;SDS011;26722;43.212;27.932;2023-04-03T09:25:25;11.95;;;5.47;;
40993;SDS011;26722;43.212;27.932;2023-04-03T09:27:54;8.93;;;6.18;;
40993;SDS011;26722;43.212;27.932;2023-04-03T09:30:24;10.57;;;6.20;;
40993;SDS011;26722;43.212;27.932;2023-04-03T09:32:52;7.85;;;5.47;;
40993;SDS011;26722;43.212;27.932;2023-04-03T09:35:26;10.65;;;5.95;;
40993;SDS011;26722;43.212;27.932;2023-04-03T09:40:38;8.00;;;5.57;;
40993;SDS011;26722;43.212;27.932;2023-04-03T09:43:24;8.43;;;5.70;;
40993;SDS011;26722;43.212;27.932;2023-04-03T09:49:00;9.65;;;5.88;;
40993;SDS011;26722;43.212;27.932;2023-04-03T09:51:27;12.15;;;6.20;;
40993;SDS011;26722;43.212;27.932;2023-04-03T09:53:55;12.55;;;5.68;;
40993;SDS011;26722;43.212;27.932;2023-04-03T09:56:22;10.77;;;6.25;;
40993;SDS011;26722;43.212;27.932;2023-04-03T10:04:17;15.68;;;6.45;;
40993;SDS011;26722;43.212;27.932;2023-04-03T10:06:54;10.43;;;6.80;;
40993;SDS011;26722;43.212;27.932;2023-04-03T10:09:24;11.40;;;6.38;;
40993;SDS011;26722;43.212;27.932;2023-04-03T10:12:00;9.80;;;6.18;;
40993;SDS011;26722;43.212;27.932;2023-04-03T10:14:26;14.20;;;6.10;;
40993;SDS011;26722;43.212;27.932;2023-04-03T10:17:18;10.45;;;5.85;;
40993;SDS011;26722;43.212;27.932;2023-04-03T10:20:00;9.43;;;6.20;;
40993;SDS011;26722;43.212;27.932;2023-04-03T10:22:55;9.25;;;6.18;;
40993;SDS011;26722;43.212;27.932;2023-04-03T10:28:29;7.28;;;5.10;;
40993;SDS011;26722;43.212;27.932;2023-04-03T10:34:04;10.85;;;5.00;;
40993;SDS011;26722;43.212;27.932;2023-04-03T10:36:36;10.40;;;4.95;;
40993;SDS011;26722;43.212;27.932;2023-04-03T10:43:01;11.23;;;4.85;;
40993;SDS011;26722;43.212;27.932;2023-04-03T10:56:13;8.18;;;4.30;;
40993;SDS011;26722;43.212;27.932;2023-04-03T10:58:48;8.98;;;5.03;;
40993;SDS011;26722;43.212;27.932;2023-04-03T11:01:23;8.70;;;4.47;;
40993;SDS011;26722;43.212;27.932;2023-04-03T11:03:57;6.95;;;3.53;;
40993;SDS011;26722;43.212;27.932;2023-04-03T11:06:24;7.40;;;4.57;;
40993;SDS011;26722;43.212;27.932;2023-04-03T11:08:57;7.70;;;4.65;;
40993;SDS011;26722;43.212;27.932;2023-04-03T11:11:36;8.27;;;4.68;;
40993;SDS011;26722;43.212;27.932;2023-04-03T11:17:04;7.13;;;4.25;;
40993;SDS011;26722;43.212;27.932;2023-04-03T11:22:16;6.35;;;4.40;;
40993;SDS011;26722;43.212;27.932;2023-04-03T11:25:18;8.25;;;4.63;;
40993;SDS011;26722;43.212;27.932;2023-04-03T11:27:57;11.02;;;5.20;;
40993;SDS011;26722;43.212;27.932;2023-04-03T11:30:30;8.98;;;5.05;;
40993;SDS011;26722;43.212;27.932;2023-04-03T11:33:21;7.82;;;4.65;;
40993;SDS011;26722;43.212;27.932;2023-04-03T11:35:54;9.38;;;4.35;;
40993;SDS011;26722;43.212;27.932;2023-04-03T11:38:31;10.07;;;4.82;;
40993;SDS011;26722;43.212;27.932;2023-04-03T11:41:02;7.55;;;5.10;;
40993;SDS011;26722;43.212;27.932;2023-04-03T11:43:31;8.10;;;4.70;;
40993;SDS011;26722;43.212;27.932;2023-04-03T11:46:01;7.60;;;5.10;;
40993;SDS011;26722;43.212;27.932;2023-04-03T11:50:56;6.60;;;4.35;;
40993;SDS011;26722;43.212;27.932;2023-04-03T11:53:30;7.40;;;4.25;;
40993;SDS011;26722;43.212;27.932;2023-04-03T12:01:51;10.55;;;4.68;;
40993;SDS011;26722;43.212;27.932;2023-04-03T12:04:18;8.15;;;4.90;;
40993;SDS011;26722;43.212;27.932;2023-04-03T12:09:32;8.77;;;4.50;;
40993;SDS011;26722;43.212;27.932;2023-04-03T12:12:32;9.68;;;5.38;;
40993;SDS011;26722;43.212;27.932;2023-04-03T12:15:21;7.78;;;4.97;;
40993;SDS011;26722;43.212;27.932;2023-04-03T12:17:49;8.48;;;4.88;;
40993;SDS011;26722;43.212;27.932;2023-04-03T12:23:26;11.82;;;6.10;;
40993;SDS011;26722;43.212;27.932;2023-04-03T12:26:00;13.90;;;6.50;;
40993;SDS011;26722;43.212;27.932;2023-04-03T12:28:38;13.43;;;6.78;;
40993;SDS011;26722;43.212;27.932;2023-04-03T12:31:04;17.83;;;8.63;;
40993;SDS011;26722;43.212;27.932;2023-04-03T12:36:17;15.27;;;8.15;;
40993;SDS011;26722;43.212;27.932;2023-04-03T12:39:02;15.10;;;8.23;;
40993;SDS011;26722;43.212;27.932;2023-04-03T12:41:50;19.30;;;8.93;;
40993;SDS011;26722;43.212;27.932;2023-04-03T12:44:25;19.63;;;7.18;;
40993;SDS011;26722;43.212;27.932;2023-04-03T12:47:23;12.82;;;7.40;;
40993;SDS011;26722;43.212;27.932;2023-04-03T12:49:49;13.80;;;7.43;;
40993;SDS011;26722;43.212;27.932;2023-04-03T12:54:47;9.90;;;5.35;;
40993;SDS011;26722;43.212;27.932;2023-04-03T12:57:18;11.73;;;7.43;;
40993;SDS011;26722;43.212;27.932;2023-04-03T12:59:45;11.82;;;6.22;;
40993;SDS011;26722;43.212;27.932;2023-04-03T13:02:31;16.85;;;6.15;;
40993;SDS011;26722;43.212;27.932;2023-04-03T13:05:09;12.57;;;5.72;;
40993;SDS011;26722;43.212;27.932;2023-04-03T13:07:41;9.48;;;5.88;;
40993;SDS011;26722;43.212;27.932;2023-04-03T13:12:47;12.25;;;6.05;;
40993;SDS011;26722;43.212;27.932;2023-04-03T13:15:22;11.27;;;6.25;;
40993;SDS011;26722;43.212;27.932;2023-04-03T13:18:20;14.57;;;7.00;;
40993;SDS011;26722;43.212;27.932;2023-04-03T13:20:56;10.13;;;5.90;;
40993;SDS011;26722;43.212;27.932;2023-04-03T13:23:26;10.63;;;6.47;;
40993;SDS011;26722;43.212;27.932;2023-04-03T13:25:51;14.20;;;6.93;;
40993;SDS011;26722;43.212;27.932;2023-04-03T13:28:19;15.65;;;7.38;;
40993;SDS011;26722;43.212;27.932;2023-04-03T13:34:04;13.15;;;6.72;;
40993;SDS011;26722;43.212;27.932;2023-04-03T13:36:45;18.95;;;6.07;;
40993;SDS011;26722;43.212;27.932;2023-04-03T13:39:25;13.95;;;6.05;;
40993;SDS011;26722;43.212;27.932;2023-04-03T13:41:54;10.70;;;6.72;;
40993;SDS011;26722;43.212;27.932;2023-04-03T13:46:47;17.25;;;7.32;;
40993;SDS011;26722;43.212;27.932;2023-04-03T13:49:40;13.68;;;6.90;;
40993;SDS011;26722;43.212;27.932;2023-04-03T13:54:47;14.52;;;6.40;;
40993;SDS011;26722;43.212;27.932;2023-04-03T13:57:17;13.13;;;6.72;;
40993;SDS011;26722;43.212;27.932;2023-04-03T13:59:43;13.43;;;6.22;;
40993;SDS011;26722;43.212;27.932;2023-04-03T14:07:09;12.82;;;6.75;;
40993;SDS011;26722;43.212;27.932;2023-04-03T14:09:36;11.88;;;6.47;;
40993;SDS011;26722;43.212;27.932;2023-04-03T14:12:06;12.35;;;6.55;;
40993;SDS011;26722;43.212;27.932;2023-04-03T14:14:43;13.77;;;7.15;;
40993;SDS011;26722;43.212;27.932;2023-04-03T14:17:14;15.75;;;6.88;;
40993;SDS011;26722;43.212;27.932;2023-04-03T14:19:42;14.85;;;6.93;;
40993;SDS011;26722;43.212;27.932;2023-04-03T14:22:16;17.83;;;7.75;;
40993;SDS011;26722;43.212;27.932;2023-04-03T14:24:42;12.43;;;6.82;;
40993;SDS011;26722;43.212;27.932;2023-04-03T14:27:19;15.38;;;7.30;;
40993;SDS011;26722;43.212;27.932;2023-04-03T14:29:47;14.32;;;7.50;;
40993;SDS011;26722;43.212;27.932;2023-04-03T14:32:15;12.60;;;7.15;;
40993;SDS011;26722;43.212;27.932;2023-04-03T14:34:43;12.32;;;7.15;;
40993;SDS011;26722;43.212;27.932;2023-04-03T14:37:10;12.00;;;6.97;;
40993;SDS011;26722;43.212;27.932;2023-04-03T14:39:37;19.40;;;7.88;;
40993;SDS011;26722;43.212;27.932;2023-04-03T14:42:02;13.40;;;7.57;;
40993;SDS011;26722;43.212;27.932;2023-04-03T14:44:28;15.63;;;7.93;;
40993;SDS011;26722;43.212;27.932;2023-04-03T14:46:53;14.07;;;7.35;;
40993;SDS011;26722;43.212;27.932;2023-04-03T14:49:22;15.20;;;7.68;;
40993;SDS011;26722;43.212;27.932;2023-04-03T14:51:52;16.58;;;7.25;;
40993;SDS011;26722;43.212;27.932;2023-04-03T14:54:19;12.63;;;6.95;;
40993;SDS011;26722;43.212;27.932;2023-04-03T14:56:50;16.35;;;8.38;;
40993;SDS011;26722;43.212;27.932;2023-04-03T14:59:16;16.35;;;7.43;;
40993;SDS011;26722;43.212;27.932;2023-04-03T15:01:45;11.23;;;5.78;;
40993;SDS011;26722;43.212;27.932;2023-04-03T15:04:12;13.15;;;6.82;;
40993;SDS011;26722;43.212;27.932;2023-04-03T15:06:39;12.50;;;5.85;;
40993;SDS011;26722;43.212;27.932;2023-04-03T15:09:05;13.23;;;6.88;;
40993;SDS011;26722;43.212;27.932;2023-04-03T15:11:41;10.80;;;6.20;;
40993;SDS011;26722;43.212;27.932;2023-04-03T15:14:08;13.02;;;6.93;;
40993;SDS011;26722;43.212;27.932;2023-04-03T15:16:34;12.32;;;7.45;;
40993;SDS011;26722;43.212;27.932;2023-04-03T15:18:59;12.93;;;6.40;;
40993;SDS011;26722;43.212;27.932;2023-04-03T15:21:25;11.15;;;6.53;;
40993;SDS011;26722;43.212;27.932;2023-04-03T15:23:50;16.10;;;7.35;;
40993;SDS011;26722;43.212;27.932;2023-04-03T15:26:16;10.25;;;6.68;;
40993;SDS011;26722;43.212;27.932;2023-04-03T15:28:42;10.70;;;6.10;;
40993;SDS011;26722;43.212;27.932;2023-04-03T15:31:09;14.10;;;6.85;;
40993;SDS011;26722;43.212;27.932;2023-04-03T15:33:35;10.20;;;6.35;;
40993;SDS011;26722;43.212;27.932;2023-04-03T15:36:01;12.38;;;6.57;;
40993;SDS011;26722;43.212;27.932;2023-04-03T15:38:27;13.35;;;7.13;;
40993;SDS011;26722;43.212;27.932;2023-04-03T15:40:53;13.57;;;6.63;;
40993;SDS011;26722;43.212;27.932;2023-04-03T15:43:19;12.52;;;7.35;;
40993;SDS011;26722;43.212;27.932;2023-04-03T15:45:45;12.93;;;6.65;;
40993;SDS011;26722;43.212;27.932;2023-04-03T15:48:11;12.05;;;7.07;;
40993;SDS011;26722;43.212;27.932;2023-04-03T15:50:37;12.88;;;7.32;;
40993;SDS011;26722;43.212;27.932;2023-04-03T15:53:03;12.48;;;6.57;;
40993;SDS011;26722;43.212;27.932;2023-04-03T15:55:29;13.45;;;6.15;;
40993;SDS011;26722;43.212;27.932;2023-04-03T15:57:57;11.60;;;6.18;;
40993;SDS011;26722;43.212;27.932;2023-04-03T16:00:23;11.90;;;5.43;;
40993;SDS011;26722;43.212;27.932;2023-04-03T16:02:50;10.60;;;5.95;;
40993;SDS011;26722;43.212;27.932;2023-04-03T16:05:19;9.00;;;4.50;;
40993;SDS011;26722;43.212;27.932;2023-04-03T16:07:45;11.30;;;5.50;;